sensor_id;sensor_type;location;lat;lon;timestamp;P1;durP1;ratioP1;P2;durP2;ratioP2
6999;SDS011;3540;53.242;10.408;2023-02-17T00:01:51;40.13;;;30.73;;
6999;SDS011;3540;53.242;10.408;2023-02-17T00:04:17;42.57;;;30.83;;
6999;SDS011;3540;53.242;10.408;2023-02-17T00:06:42;41.03;;;29.53;;
6999;SDS011;3540;53.242;10.408;2023-02-17T00:09:08;38.37;;;28.93;;
6999;SDS011;3540;53.242;10.408;2023-02-17T00:11:34;39.27;;;28.80;;
6999;SDS011;3540;53.242;10.408;2023-02-17T00:13:59;39.00;;;28.63;;
6999;SDS011;3540;53.242;10.408;2023-02-17T00:16:25;40.77;;;29.50;;
6999;SDS011;3540;53.242;10.408;2023-02-17T00:18:56;38.90;;;28.57;;
6999;SDS011;3540;53.242;10.408;2023-02-17T00:21:24;36.23;;;28.20;;
6999;SDS011;3540;53.242;10.408;2023-02-17T00:23:52;36.93;;;28.73;;
6999;SDS011;3540;53.242;10.408;2023-02-17T00:26:18;37.33;;;28.70;;
6999;SDS011;3540;53.242;10.408;2023-02-17T00:28:45;37.80;;;28.17;;
6999;SDS011;3540;53.242;10.408;2023-02-17T00:31:16;39.00;;;28.63;;
6999;SDS011;3540;53.242;10.408;2023-02-17T00:33:44;37.77;;;27.73;;
6999;SDS011;3540;53.242;10.408;2023-02-17T00:36:10;35.33;;;27.30;;
6999;SDS011;3540;53.242;10.408;2023-02-17T00:38:39;33.83;;;26.47;;
6999;SDS011;3540;53.242;10.408;2023-02-17T00:41:04;37.33;;;27.73;;
6999;SDS011;3540;53.242;10.408;2023-02-17T00:43:30;33.60;;;26.50;;
6999;SDS011;3540;53.242;10.408;2023-02-17T00:45:56;33.73;;;25.90;;
6999;SDS011;3540;53.242;10.408;2023-02-17T00:48:22;34.43;;;26.43;;
6999;SDS011;3540;53.242;10.408;2023-02-17T00:50:47;32.93;;;25.70;;
6999;SDS011;3540;53.242;10.408;2023-02-17T00:53:13;34.73;;;26.40;;
6999;SDS011;3540;53.242;10.408;2023-02-17T00:55:39;32.17;;;25.53;;
6999;SDS011;3540;53.242;10.408;2023-02-17T00:58:05;31.93;;;24.97;;
6999;SDS011;3540;53.242;10.408;2023-02-17T01:00:31;31.53;;;25.17;;
6999;SDS011;3540;53.242;10.408;2023-02-17T01:02:56;31.47;;;25.20;;
6999;SDS011;3540;53.242;10.408;2023-02-17T01:05:22;30.70;;;25.43;;
6999;SDS011;3540;53.242;10.408;2023-02-17T01:07:47;30.77;;;24.93;;
6999;SDS011;3540;53.242;10.408;2023-02-17T01:10:13;30.87;;;25.13;;
6999;SDS011;3540;53.242;10.408;2023-02-17T01:12:42;30.13;;;24.57;;
6999;SDS011;3540;53.242;10.408;2023-02-17T01:15:08;31.20;;;25.43;;
6999;SDS011;3540;53.242;10.408;2023-02-17T01:17:34;30.80;;;24.80;;
6999;SDS011;3540;53.242;10.408;2023-02-17T01:19:59;30.27;;;24.07;;
6999;SDS011;3540;53.242;10.408;2023-02-17T01:22:25;28.60;;;23.57;;
6999;SDS011;3540;53.242;10.408;2023-02-17T01:24:51;31.17;;;24.07;;
6999;SDS011;3540;53.242;10.408;2023-02-17T01:27:16;31.57;;;24.80;;
6999;SDS011;3540;53.242;10.408;2023-02-17T01:29:43;28.90;;;23.07;;
6999;SDS011;3540;53.242;10.408;2023-02-17T01:32:10;29.10;;;23.77;;
6999;SDS011;3540;53.242;10.408;2023-02-17T01:34:36;30.63;;;23.63;;
6999;SDS011;3540;53.242;10.408;2023-02-17T01:37:02;29.87;;;24.60;;
6999;SDS011;3540;53.242;10.408;2023-02-17T01:39:28;29.27;;;23.60;;
6999;SDS011;3540;53.242;10.408;2023-02-17T01:41:53;30.27;;;24.50;;
6999;SDS011;3540;53.242;10.408;2023-02-17T01:44:21;29.73;;;23.53;;
6999;SDS011;3540;53.242;10.408;2023-02-17T01:46:49;28.60;;;24.60;;
6999;SDS011;3540;53.242;10.408;2023-02-17T01:49:27;31.03;;;24.63;;
6999;SDS011;3540;53.242;10.408;2023-02-17T01:57:15;30.17;;;24.20;;
6999;SDS011;3540;53.242;10.408;2023-02-17T01:59:44;30.57;;;24.87;;
6999;SDS011;3540;53.242;10.408;2023-02-17T02:02:11;33.07;;;26.17;;
6999;SDS011;3540;53.242;10.408;2023-02-17T02:04:38;27.20;;;24.23;;
6999;SDS011;3540;53.242;10.408;2023-02-17T02:07:09;31.90;;;25.83;;
6999;SDS011;3540;53.242;10.408;2023-02-17T02:09:42;31.23;;;26.03;;
6999;SDS011;3540;53.242;10.408;2023-02-17T02:12:21;32.37;;;25.83;;
6999;SDS011;3540;53.242;10.408;2023-02-17T02:14:50;31.57;;;25.80;;
6999;SDS011;3540;53.242;10.408;2023-02-17T02:18:20;31.27;;;25.47;;
6999;SDS011;3540;53.242;10.408;2023-02-17T02:25:53;33.87;;;26.30;;
6999;SDS011;3540;53.242;10.408;2023-02-17T02:34:02;32.67;;;26.83;;
6999;SDS011;3540;53.242;10.408;2023-02-17T02:36:33;31.70;;;25.57;;
6999;SDS011;3540;53.242;10.408;2023-02-17T02:39:10;33.03;;;26.00;;
6999;SDS011;3540;53.242;10.408;2023-02-17T02:41:46;33.40;;;27.43;;
6999;SDS011;3540;53.242;10.408;2023-02-17T02:44:18;31.73;;;26.43;;
6999;SDS011;3540;53.242;10.408;2023-02-17T02:47:04;30.70;;;25.80;;
6999;SDS011;3540;53.242;10.408;2023-02-17T02:49:50;32.17;;;26.63;;
6999;SDS011;3540;53.242;10.408;2023-02-17T02:52:21;32.50;;;26.87;;
6999;SDS011;3540;53.242;10.408;2023-02-17T03:00:44;32.57;;;27.43;;
6999;SDS011;3540;53.242;10.408;2023-02-17T03:03:22;31.30;;;26.13;;
6999;SDS011;3540;53.242;10.408;2023-02-17T03:06:10;34.20;;;26.47;;
6999;SDS011;3540;53.242;10.408;2023-02-17T03:08:47;32.93;;;26.23;;
6999;SDS011;3540;53.242;10.408;2023-02-17T03:11:21;33.43;;;25.73;;
6999;SDS011;3540;53.242;10.408;2023-02-17T03:14:06;30.80;;;25.23;;
6999;SDS011;3540;53.242;10.408;2023-02-17T03:16:34;33.07;;;25.93;;
6999;SDS011;3540;53.242;10.408;2023-02-17T03:19:00;33.77;;;26.67;;
6999;SDS011;3540;53.242;10.408;2023-02-17T03:21:28;32.53;;;25.73;;
6999;SDS011;3540;53.242;10.408;2023-02-17T03:24:06;28.57;;;24.47;;
6999;SDS011;3540;53.242;10.408;2023-02-17T03:26:32;29.30;;;24.47;;
6999;SDS011;3540;53.242;10.408;2023-02-17T03:28:58;30.60;;;24.83;;
6999;SDS011;3540;53.242;10.408;2023-02-17T03:31:24;27.73;;;23.30;;
6999;SDS011;3540;53.242;10.408;2023-02-17T03:33:49;29.70;;;23.37;;
6999;SDS011;3540;53.242;10.408;2023-02-17T03:36:15;31.33;;;24.20;;
6999;SDS011;3540;53.242;10.408;2023-02-17T03:38:41;29.10;;;23.27;;
6999;SDS011;3540;53.242;10.408;2023-02-17T03:41:06;29.23;;;23.53;;
6999;SDS011;3540;53.242;10.408;2023-02-17T03:43:32;28.67;;;23.63;;
6999;SDS011;3540;53.242;10.408;2023-02-17T03:45:59;27.77;;;22.83;;
6999;SDS011;3540;53.242;10.408;2023-02-17T03:48:24;27.37;;;22.53;;
6999;SDS011;3540;53.242;10.408;2023-02-17T03:50:50;26.67;;;22.03;;
6999;SDS011;3540;53.242;10.408;2023-02-17T03:53:16;25.90;;;22.30;;
6999;SDS011;3540;53.242;10.408;2023-02-17T03:55:41;27.27;;;21.37;;
6999;SDS011;3540;53.242;10.408;2023-02-17T03:58:07;25.23;;;21.43;;
6999;SDS011;3540;53.242;10.408;2023-02-17T04:00:33;25.47;;;20.80;;
6999;SDS011;3540;53.242;10.408;2023-02-17T04:02:58;26.23;;;21.07;;
6999;SDS011;3540;53.242;10.408;2023-02-17T04:05:24;28.30;;;21.50;;
6999;SDS011;3540;53.242;10.408;2023-02-17T04:07:50;23.03;;;19.20;;
6999;SDS011;3540;53.242;10.408;2023-02-17T04:10:15;25.30;;;20.80;;
6999;SDS011;3540;53.242;10.408;2023-02-17T04:12:41;23.73;;;18.97;;
6999;SDS011;3540;53.242;10.408;2023-02-17T04:15:07;24.83;;;19.70;;
6999;SDS011;3540;53.242;10.408;2023-02-17T04:17:34;22.67;;;19.10;;
6999;SDS011;3540;53.242;10.408;2023-02-17T04:20:02;23.13;;;18.73;;
6999;SDS011;3540;53.242;10.408;2023-02-17T04:22:29;23.83;;;19.13;;
6999;SDS011;3540;53.242;10.408;2023-02-17T04:24:54;24.40;;;19.40;;
6999;SDS011;3540;53.242;10.408;2023-02-17T04:27:20;23.53;;;19.27;;
6999;SDS011;3540;53.242;10.408;2023-02-17T04:29:45;23.07;;;18.87;;
6999;SDS011;3540;53.242;10.408;2023-02-17T04:32:11;23.60;;;19.33;;
6999;SDS011;3540;53.242;10.408;2023-02-17T04:34:37;22.00;;;18.37;;
6999;SDS011;3540;53.242;10.408;2023-02-17T04:37:02;23.67;;;19.40;;
6999;SDS011;3540;53.242;10.408;2023-02-17T04:39:28;24.37;;;19.00;;
6999;SDS011;3540;53.242;10.408;2023-02-17T04:41:53;24.00;;;18.97;;
6999;SDS011;3540;53.242;10.408;2023-02-17T04:44:19;26.23;;;20.33;;
6999;SDS011;3540;53.242;10.408;2023-02-17T04:46:45;25.80;;;19.37;;
6999;SDS011;3540;53.242;10.408;2023-02-17T04:49:10;26.03;;;20.47;;
6999;SDS011;3540;53.242;10.408;2023-02-17T04:51:36;24.23;;;19.53;;
6999;SDS011;3540;53.242;10.408;2023-02-17T04:54:01;24.37;;;19.53;;
6999;SDS011;3540;53.242;10.408;2023-02-17T04:56:27;25.20;;;19.70;;
6999;SDS011;3540;53.242;10.408;2023-02-17T04:58:53;24.40;;;20.17;;
6999;SDS011;3540;53.242;10.408;2023-02-17T05:01:18;25.77;;;20.43;;
6999;SDS011;3540;53.242;10.408;2023-02-17T05:03:44;26.37;;;20.70;;
6999;SDS011;3540;53.242;10.408;2023-02-17T05:06:09;26.37;;;20.13;;
6999;SDS011;3540;53.242;10.408;2023-02-17T05:08:35;28.90;;;21.37;;
6999;SDS011;3540;53.242;10.408;2023-02-17T05:11:01;26.43;;;20.67;;
6999;SDS011;3540;53.242;10.408;2023-02-17T05:13:26;27.73;;;20.90;;
6999;SDS011;3540;53.242;10.408;2023-02-17T05:15:52;24.67;;;20.37;;
6999;SDS011;3540;53.242;10.408;2023-02-17T05:18:18;25.13;;;20.67;;
6999;SDS011;3540;53.242;10.408;2023-02-17T05:20:43;26.77;;;21.20;;
6999;SDS011;3540;53.242;10.408;2023-02-17T05:23:09;25.60;;;20.10;;
6999;SDS011;3540;53.242;10.408;2023-02-17T05:25:34;28.17;;;21.53;;
6999;SDS011;3540;53.242;10.408;2023-02-17T05:28:00;26.73;;;20.97;;
6999;SDS011;3540;53.242;10.408;2023-02-17T05:30:26;28.57;;;21.20;;
6999;SDS011;3540;53.242;10.408;2023-02-17T05:32:52;25.50;;;20.83;;
6999;SDS011;3540;53.242;10.408;2023-02-17T05:35:18;25.93;;;21.17;;
6999;SDS011;3540;53.242;10.408;2023-02-17T05:37:43;28.37;;;21.47;;
6999;SDS011;3540;53.242;10.408;2023-02-17T05:40:09;27.60;;;20.53;;
6999;SDS011;3540;53.242;10.408;2023-02-17T05:42:36;29.23;;;21.33;;
6999;SDS011;3540;53.242;10.408;2023-02-17T05:45:02;27.77;;;20.87;;
6999;SDS011;3540;53.242;10.408;2023-02-17T05:47:28;26.30;;;20.47;;
6999;SDS011;3540;53.242;10.408;2023-02-17T05:49:54;27.20;;;21.07;;
6999;SDS011;3540;53.242;10.408;2023-02-17T05:52:19;27.67;;;21.27;;
6999;SDS011;3540;53.242;10.408;2023-02-17T05:54:45;28.27;;;21.30;;
6999;SDS011;3540;53.242;10.408;2023-02-17T05:57:10;29.00;;;21.47;;
6999;SDS011;3540;53.242;10.408;2023-02-17T05:59:36;28.63;;;22.47;;
6999;SDS011;3540;53.242;10.408;2023-02-17T06:02:02;29.33;;;22.70;;
6999;SDS011;3540;53.242;10.408;2023-02-17T06:04:27;32.27;;;23.00;;
6999;SDS011;3540;53.242;10.408;2023-02-17T06:06:53;28.80;;;22.27;;
6999;SDS011;3540;53.242;10.408;2023-02-17T06:09:19;32.77;;;22.53;;
6999;SDS011;3540;53.242;10.408;2023-02-17T06:11:44;32.27;;;23.13;;
6999;SDS011;3540;53.242;10.408;2023-02-17T06:14:10;30.37;;;21.63;;
6999;SDS011;3540;53.242;10.408;2023-02-17T06:16:35;29.90;;;22.43;;
6999;SDS011;3540;53.242;10.408;2023-02-17T06:19:01;28.17;;;21.87;;
6999;SDS011;3540;53.242;10.408;2023-02-17T06:21:29;30.50;;;22.20;;
6999;SDS011;3540;53.242;10.408;2023-02-17T06:23:54;33.87;;;22.07;;
6999;SDS011;3540;53.242;10.408;2023-02-17T06:26:20;30.57;;;21.20;;
6999;SDS011;3540;53.242;10.408;2023-02-17T06:28:46;32.27;;;22.23;;
6999;SDS011;3540;53.242;10.408;2023-02-17T06:31:11;28.87;;;22.03;;
6999;SDS011;3540;53.242;10.408;2023-02-17T06:33:37;29.20;;;21.73;;
6999;SDS011;3540;53.242;10.408;2023-02-17T06:36:03;30.40;;;21.40;;
6999;SDS011;3540;53.242;10.408;2023-02-17T06:38:29;32.37;;;22.37;;
6999;SDS011;3540;53.242;10.408;2023-02-17T06:40:54;30.60;;;22.37;;
6999;SDS011;3540;53.242;10.408;2023-02-17T06:43:20;32.33;;;23.07;;
6999;SDS011;3540;53.242;10.408;2023-02-17T06:45:46;30.37;;;22.47;;
6999;SDS011;3540;53.242;10.408;2023-02-17T06:48:11;31.77;;;23.60;;
6999;SDS011;3540;53.242;10.408;2023-02-17T06:50:37;31.73;;;23.40;;
6999;SDS011;3540;53.242;10.408;2023-02-17T06:53:03;32.87;;;24.20;;
6999;SDS011;3540;53.242;10.408;2023-02-17T06:55:29;31.97;;;24.07;;
6999;SDS011;3540;53.242;10.408;2023-02-17T06:57:54;32.07;;;23.80;;
6999;SDS011;3540;53.242;10.408;2023-02-17T07:00:20;34.77;;;25.57;;
6999;SDS011;3540;53.242;10.408;2023-02-17T07:02:46;33.47;;;24.97;;
6999;SDS011;3540;53.242;10.408;2023-02-17T07:05:12;33.93;;;24.30;;
6999;SDS011;3540;53.242;10.408;2023-02-17T07:07:38;33.17;;;24.67;;
6999;SDS011;3540;53.242;10.408;2023-02-17T07:10:03;39.93;;;24.93;;
6999;SDS011;3540;53.242;10.408;2023-02-17T07:12:30;36.80;;;25.67;;
6999;SDS011;3540;53.242;10.408;2023-02-17T07:14:55;35.43;;;25.50;;
6999;SDS011;3540;53.242;10.408;2023-02-17T07:17:21;35.57;;;25.13;;
6999;SDS011;3540;53.242;10.408;2023-02-17T07:19:47;34.93;;;25.37;;
6999;SDS011;3540;53.242;10.408;2023-02-17T07:22:12;36.23;;;23.57;;
6999;SDS011;3540;53.242;10.408;2023-02-17T07:24:38;32.17;;;24.23;;
6999;SDS011;3540;53.242;10.408;2023-02-17T07:27:04;34.37;;;24.63;;
6999;SDS011;3540;53.242;10.408;2023-02-17T07:29:30;33.37;;;25.17;;
6999;SDS011;3540;53.242;10.408;2023-02-17T07:31:56;35.37;;;24.90;;
6999;SDS011;3540;53.242;10.408;2023-02-17T07:34:22;34.93;;;25.10;;
6999;SDS011;3540;53.242;10.408;2023-02-17T07:36:48;32.20;;;23.87;;
6999;SDS011;3540;53.242;10.408;2023-02-17T07:39:14;32.83;;;23.90;;
6999;SDS011;3540;53.242;10.408;2023-02-17T07:41:40;33.97;;;23.40;;
6999;SDS011;3540;53.242;10.408;2023-02-17T07:44:05;33.10;;;24.23;;
6999;SDS011;3540;53.242;10.408;2023-02-17T07:46:31;34.03;;;24.73;;
6999;SDS011;3540;53.242;10.408;2023-02-17T07:48:57;32.97;;;23.43;;
6999;SDS011;3540;53.242;10.408;2023-02-17T07:51:23;34.17;;;24.47;;
6999;SDS011;3540;53.242;10.408;2023-02-17T07:53:49;33.33;;;24.23;;
6999;SDS011;3540;53.242;10.408;2023-02-17T07:56:16;31.70;;;23.17;;
6999;SDS011;3540;53.242;10.408;2023-02-17T07:58:44;33.53;;;23.43;;
6999;SDS011;3540;53.242;10.408;2023-02-17T08:01:10;30.97;;;23.10;;
6999;SDS011;3540;53.242;10.408;2023-02-17T08:03:37;30.77;;;22.27;;
6999;SDS011;3540;53.242;10.408;2023-02-17T08:06:03;30.67;;;22.63;;
6999;SDS011;3540;53.242;10.408;2023-02-17T08:08:32;30.10;;;21.90;;
6999;SDS011;3540;53.242;10.408;2023-02-17T08:11:16;29.57;;;21.27;;
6999;SDS011;3540;53.242;10.408;2023-02-17T08:14:00;30.93;;;22.03;;
6999;SDS011;3540;53.242;10.408;2023-02-17T08:16:26;26.97;;;20.50;;
6999;SDS011;3540;53.242;10.408;2023-02-17T08:18:52;28.73;;;20.93;;
6999;SDS011;3540;53.242;10.408;2023-02-17T08:21:19;30.83;;;22.20;;
6999;SDS011;3540;53.242;10.408;2023-02-17T08:23:46;26.43;;;20.07;;
6999;SDS011;3540;53.242;10.408;2023-02-17T08:26:12;31.03;;;20.23;;
6999;SDS011;3540;53.242;10.408;2023-02-17T08:28:38;30.17;;;20.57;;
6999;SDS011;3540;53.242;10.408;2023-02-17T08:31:04;27.40;;;19.57;;
6999;SDS011;3540;53.242;10.408;2023-02-17T08:33:30;25.37;;;18.40;;
6999;SDS011;3540;53.242;10.408;2023-02-17T08:35:55;25.70;;;19.10;;
6999;SDS011;3540;53.242;10.408;2023-02-17T08:38:21;24.50;;;18.23;;
6999;SDS011;3540;53.242;10.408;2023-02-17T08:40:47;25.63;;;18.10;;
6999;SDS011;3540;53.242;10.408;2023-02-17T08:43:12;25.43;;;18.07;;
6999;SDS011;3540;53.242;10.408;2023-02-17T08:45:38;25.70;;;18.03;;
6999;SDS011;3540;53.242;10.408;2023-02-17T08:48:04;25.00;;;17.83;;
6999;SDS011;3540;53.242;10.408;2023-02-17T08:50:30;27.93;;;17.60;;
6999;SDS011;3540;53.242;10.408;2023-02-17T08:52:57;23.67;;;17.33;;
6999;SDS011;3540;53.242;10.408;2023-02-17T08:55:23;21.50;;;16.40;;
6999;SDS011;3540;53.242;10.408;2023-02-17T08:57:49;24.13;;;17.30;;
6999;SDS011;3540;53.242;10.408;2023-02-17T09:00:15;23.60;;;16.80;;
6999;SDS011;3540;53.242;10.408;2023-02-17T09:02:41;22.97;;;17.53;;
6999;SDS011;3540;53.242;10.408;2023-02-17T09:05:09;26.13;;;17.07;;
6999;SDS011;3540;53.242;10.408;2023-02-17T09:07:36;25.23;;;17.60;;
6999;SDS011;3540;53.242;10.408;2023-02-17T09:10:03;22.53;;;17.20;;
6999;SDS011;3540;53.242;10.408;2023-02-17T09:12:30;25.07;;;17.63;;
6999;SDS011;3540;53.242;10.408;2023-02-17T09:14:55;24.93;;;17.53;;
6999;SDS011;3540;53.242;10.408;2023-02-17T09:17:21;25.57;;;17.23;;
6999;SDS011;3540;53.242;10.408;2023-02-17T09:19:47;23.87;;;16.73;;
6999;SDS011;3540;53.242;10.408;2023-02-17T09:22:13;22.50;;;16.23;;
6999;SDS011;3540;53.242;10.408;2023-02-17T09:24:41;20.73;;;15.63;;
6999;SDS011;3540;53.242;10.408;2023-02-17T09:27:10;22.17;;;15.73;;
6999;SDS011;3540;53.242;10.408;2023-02-17T09:29:36;21.20;;;15.83;;
6999;SDS011;3540;53.242;10.408;2023-02-17T09:32:08;20.60;;;15.33;;
6999;SDS011;3540;53.242;10.408;2023-02-17T09:34:35;20.53;;;14.07;;
6999;SDS011;3540;53.242;10.408;2023-02-17T09:37:02;17.37;;;14.70;;
6999;SDS011;3540;53.242;10.408;2023-02-17T09:39:28;20.83;;;15.17;;
6999;SDS011;3540;53.242;10.408;2023-02-17T09:41:53;17.47;;;13.83;;
6999;SDS011;3540;53.242;10.408;2023-02-17T09:47:04;18.70;;;14.57;;
6999;SDS011;3540;53.242;10.408;2023-02-17T09:49:44;18.80;;;14.17;;
6999;SDS011;3540;53.242;10.408;2023-02-17T09:52:52;17.07;;;13.53;;
6999;SDS011;3540;53.242;10.408;2023-02-17T09:55:17;18.20;;;13.93;;
6999;SDS011;3540;53.242;10.408;2023-02-17T09:57:52;21.70;;;14.50;;
6999;SDS011;3540;53.242;10.408;2023-02-17T10:00:55;17.03;;;13.13;;
6999;SDS011;3540;53.242;10.408;2023-02-17T10:03:24;21.40;;;13.40;;
6999;SDS011;3540;53.242;10.408;2023-02-17T10:14:00;17.67;;;13.17;;
6999;SDS011;3540;53.242;10.408;2023-02-17T10:16:35;16.80;;;12.37;;
6999;SDS011;3540;53.242;10.408;2023-02-17T10:21:32;17.03;;;12.50;;
6999;SDS011;3540;53.242;10.408;2023-02-17T10:24:03;18.07;;;12.60;;
6999;SDS011;3540;53.242;10.408;2023-02-17T10:29:30;18.57;;;12.43;;
6999;SDS011;3540;53.242;10.408;2023-02-17T10:34:52;17.77;;;12.33;;
6999;SDS011;3540;53.242;10.408;2023-02-17T10:37:34;15.90;;;11.73;;
6999;SDS011;3540;53.242;10.408;2023-02-17T10:40:23;16.90;;;11.70;;
6999;SDS011;3540;53.242;10.408;2023-02-17T10:42:54;15.17;;;11.80;;
6999;SDS011;3540;53.242;10.408;2023-02-17T10:48:00;18.10;;;12.40;;
6999;SDS011;3540;53.242;10.408;2023-02-17T10:50:27;15.83;;;11.07;;
6999;SDS011;3540;53.242;10.408;2023-02-17T10:52:54;18.93;;;11.67;;
6999;SDS011;3540;53.242;10.408;2023-02-17T10:55:37;16.10;;;11.97;;
6999;SDS011;3540;53.242;10.408;2023-02-17T10:58:22;15.80;;;11.20;;
6999;SDS011;3540;53.242;10.408;2023-02-17T11:00:58;17.03;;;12.00;;
6999;SDS011;3540;53.242;10.408;2023-02-17T11:03:26;18.40;;;12.27;;
6999;SDS011;3540;53.242;10.408;2023-02-17T11:06:40;16.83;;;12.37;;
6999;SDS011;3540;53.242;10.408;2023-02-17T11:08:55;17.87;;;12.57;;
6999;SDS011;3540;53.242;10.408;2023-02-17T11:11:28;17.83;;;12.80;;
6999;SDS011;3540;53.242;10.408;2023-02-17T11:19:01;16.13;;;12.63;;
6999;SDS011;3540;53.242;10.408;2023-02-17T11:21:29;18.07;;;13.60;;
6999;SDS011;3540;53.242;10.408;2023-02-17T11:23:58;17.13;;;13.13;;
6999;SDS011;3540;53.242;10.408;2023-02-17T11:26:30;17.80;;;13.73;;
6999;SDS011;3540;53.242;10.408;2023-02-17T11:34:34;18.67;;;14.30;;
6999;SDS011;3540;53.242;10.408;2023-02-17T11:39:36;23.00;;;15.87;;
6999;SDS011;3540;53.242;10.408;2023-02-17T11:44:45;19.83;;;14.83;;
6999;SDS011;3540;53.242;10.408;2023-02-17T11:50:12;23.10;;;15.70;;
6999;SDS011;3540;53.242;10.408;2023-02-17T12:02:05;21.53;;;15.43;;
6999;SDS011;3540;53.242;10.408;2023-02-17T12:04:24;20.83;;;14.43;;
6999;SDS011;3540;53.242;10.408;2023-02-17T12:10:30;23.03;;;15.10;;
6999;SDS011;3540;53.242;10.408;2023-02-17T12:18:36;21.73;;;14.67;;
6999;SDS011;3540;53.242;10.408;2023-02-17T12:24:06;20.90;;;14.97;;
6999;SDS011;3540;53.242;10.408;2023-02-17T12:34:54;21.37;;;14.43;;
6999;SDS011;3540;53.242;10.408;2023-02-17T12:37:33;19.63;;;13.50;;
6999;SDS011;3540;53.242;10.408;2023-02-17T12:40:53;20.77;;;13.20;;
6999;SDS011;3540;53.242;10.408;2023-02-17T12:43:13;20.23;;;12.93;;
6999;SDS011;3540;53.242;10.408;2023-02-17T12:45:52;18.73;;;12.47;;
6999;SDS011;3540;53.242;10.408;2023-02-17T12:56:28;15.67;;;10.47;;
6999;SDS011;3540;53.242;10.408;2023-02-17T12:59:12;14.00;;;9.70;;
6999;SDS011;3540;53.242;10.408;2023-02-17T13:01:46;14.33;;;10.60;;
6999;SDS011;3540;53.242;10.408;2023-02-17T13:04:16;12.70;;;9.57;;
6999;SDS011;3540;53.242;10.408;2023-02-17T13:06:44;13.40;;;9.70;;
6999;SDS011;3540;53.242;10.408;2023-02-17T13:09:28;12.10;;;9.03;;
6999;SDS011;3540;53.242;10.408;2023-02-17T13:12:07;12.40;;;9.20;;
6999;SDS011;3540;53.242;10.408;2023-02-17T13:22:42;12.00;;;8.07;;
6999;SDS011;3540;53.242;10.408;2023-02-17T13:25:26;11.43;;;8.03;;
6999;SDS011;3540;53.242;10.408;2023-02-17T13:27:57;8.63;;;6.70;;
6999;SDS011;3540;53.242;10.408;2023-02-17T13:33:03;8.77;;;6.83;;
6999;SDS011;3540;53.242;10.408;2023-02-17T13:35:44;8.67;;;6.27;;
6999;SDS011;3540;53.242;10.408;2023-02-17T13:38:09;9.83;;;6.73;;
6999;SDS011;3540;53.242;10.408;2023-02-17T13:40:36;8.90;;;6.17;;
6999;SDS011;3540;53.242;10.408;2023-02-17T13:43:17;8.37;;;6.33;;
6999;SDS011;3540;53.242;10.408;2023-02-17T13:50:53;7.37;;;5.77;;
6999;SDS011;3540;53.242;10.408;2023-02-17T13:56:10;9.23;;;5.83;;
6999;SDS011;3540;53.242;10.408;2023-02-17T13:58:47;7.40;;;5.60;;
6999;SDS011;3540;53.242;10.408;2023-02-17T14:01:17;8.40;;;5.60;;
6999;SDS011;3540;53.242;10.408;2023-02-17T14:03:47;7.63;;;5.57;;
6999;SDS011;3540;53.242;10.408;2023-02-17T14:06:22;6.60;;;4.87;;
6999;SDS011;3540;53.242;10.408;2023-02-17T14:08:49;5.70;;;4.70;;
6999;SDS011;3540;53.242;10.408;2023-02-17T14:13:41;6.07;;;4.50;;
6999;SDS011;3540;53.242;10.408;2023-02-17T14:19:08;6.30;;;4.60;;
6999;SDS011;3540;53.242;10.408;2023-02-17T14:21:43;6.10;;;5.00;;
6999;SDS011;3540;53.242;10.408;2023-02-17T14:27:03;6.60;;;4.83;;
6999;SDS011;3540;53.242;10.408;2023-02-17T14:29:45;7.37;;;5.47;;
6999;SDS011;3540;53.242;10.408;2023-02-17T14:32:24;9.90;;;6.33;;
6999;SDS011;3540;53.242;10.408;2023-02-17T14:35:34;7.50;;;5.60;;
6999;SDS011;3540;53.242;10.408;2023-02-17T14:37:53;8.57;;;6.03;;
6999;SDS011;3540;53.242;10.408;2023-02-17T14:42:47;7.87;;;6.07;;
6999;SDS011;3540;53.242;10.408;2023-02-17T14:45:13;10.20;;;6.33;;
6999;SDS011;3540;53.242;10.408;2023-02-17T14:47:43;8.27;;;6.17;;
6999;SDS011;3540;53.242;10.408;2023-02-17T14:50:10;8.27;;;6.20;;
6999;SDS011;3540;53.242;10.408;2023-02-17T14:52:38;10.10;;;6.33;;
6999;SDS011;3540;53.242;10.408;2023-02-17T14:57:59;10.77;;;6.27;;
6999;SDS011;3540;53.242;10.408;2023-02-17T15:00:24;9.83;;;6.20;;
6999;SDS011;3540;53.242;10.408;2023-02-17T15:02:50;11.40;;;6.00;;
6999;SDS011;3540;53.242;10.408;2023-02-17T15:05:16;12.57;;;6.53;;
6999;SDS011;3540;53.242;10.408;2023-02-17T15:07:43;9.90;;;6.37;;
6999;SDS011;3540;53.242;10.408;2023-02-17T15:10:12;8.93;;;5.70;;
6999;SDS011;3540;53.242;10.408;2023-02-17T15:12:49;10.70;;;5.87;;
6999;SDS011;3540;53.242;10.408;2023-02-17T15:15:16;9.50;;;5.53;;
6999;SDS011;3540;53.242;10.408;2023-02-17T15:17:42;9.67;;;5.40;;
6999;SDS011;3540;53.242;10.408;2023-02-17T15:20:08;11.83;;;6.13;;
6999;SDS011;3540;53.242;10.408;2023-02-17T15:22:35;10.43;;;5.80;;
6999;SDS011;3540;53.242;10.408;2023-02-17T15:25:15;10.70;;;5.30;;
6999;SDS011;3540;53.242;10.408;2023-02-17T15:27:43;9.80;;;5.20;;
6999;SDS011;3540;53.242;10.408;2023-02-17T15:30:14;11.27;;;5.43;;
6999;SDS011;3540;53.242;10.408;2023-02-17T15:32:41;10.97;;;5.20;;
6999;SDS011;3540;53.242;10.408;2023-02-17T15:35:17;9.13;;;4.10;;
6999;SDS011;3540;53.242;10.408;2023-02-17T15:37:46;11.93;;;4.23;;
6999;SDS011;3540;53.242;10.408;2023-02-17T15:40:22;11.97;;;4.10;;
6999;SDS011;3540;53.242;10.408;2023-02-17T15:42:52;11.67;;;4.30;;
6999;SDS011;3540;53.242;10.408;2023-02-17T15:45:20;8.20;;;3.23;;
6999;SDS011;3540;53.242;10.408;2023-02-17T15:47:48;11.00;;;3.30;;
6999;SDS011;3540;53.242;10.408;2023-02-17T15:50:17;9.50;;;3.40;;
6999;SDS011;3540;53.242;10.408;2023-02-17T15:52:45;5.10;;;2.63;;
6999;SDS011;3540;53.242;10.408;2023-02-17T15:55:11;8.57;;;2.50;;
6999;SDS011;3540;53.242;10.408;2023-02-17T15:57:56;9.23;;;2.53;;
6999;SDS011;3540;53.242;10.408;2023-02-17T16:00:27;11.23;;;2.60;;
6999;SDS011;3540;53.242;10.408;2023-02-17T16:02:56;11.80;;;2.60;;
6999;SDS011;3540;53.242;10.408;2023-02-17T16:05:23;12.17;;;2.80;;
6999;SDS011;3540;53.242;10.408;2023-02-17T16:07:50;14.20;;;2.63;;
6999;SDS011;3540;53.242;10.408;2023-02-17T16:10:17;12.43;;;3.23;;
6999;SDS011;3540;53.242;10.408;2023-02-17T16:12:45;15.00;;;2.90;;
6999;SDS011;3540;53.242;10.408;2023-02-17T16:15:14;13.43;;;2.70;;
6999;SDS011;3540;53.242;10.408;2023-02-17T16:17:41;11.50;;;2.73;;
6999;SDS011;3540;53.242;10.408;2023-02-17T16:20:17;9.70;;;2.77;;
6999;SDS011;3540;53.242;10.408;2023-02-17T16:22:45;14.27;;;3.20;;
6999;SDS011;3540;53.242;10.408;2023-02-17T16:25:12;10.53;;;2.77;;
6999;SDS011;3540;53.242;10.408;2023-02-17T16:27:39;18.83;;;3.67;;
6999;SDS011;3540;53.242;10.408;2023-02-17T16:30:40;16.23;;;3.70;;
6999;SDS011;3540;53.242;10.408;2023-02-17T16:32:59;13.13;;;3.10;;
6999;SDS011;3540;53.242;10.408;2023-02-17T16:35:26;17.10;;;3.67;;
6999;SDS011;3540;53.242;10.408;2023-02-17T16:40:28;16.73;;;2.83;;
6999;SDS011;3540;53.242;10.408;2023-02-17T16:42:55;13.83;;;3.63;;
6999;SDS011;3540;53.242;10.408;2023-02-17T16:45:22;18.03;;;3.80;;
6999;SDS011;3540;53.242;10.408;2023-02-17T16:47:55;13.87;;;3.57;;
6999;SDS011;3540;53.242;10.408;2023-02-17T16:52:57;16.33;;;3.23;;
6999;SDS011;3540;53.242;10.408;2023-02-17T16:55:26;18.67;;;3.70;;
6999;SDS011;3540;53.242;10.408;2023-02-17T16:57:54;16.90;;;3.70;;
6999;SDS011;3540;53.242;10.408;2023-02-17T17:00:22;14.27;;;3.40;;
6999;SDS011;3540;53.242;10.408;2023-02-17T17:02:49;15.90;;;3.57;;
6999;SDS011;3540;53.242;10.408;2023-02-17T17:05:15;18.53;;;3.73;;
6999;SDS011;3540;53.242;10.408;2023-02-17T17:07:42;16.70;;;3.67;;